Time;durP1;ratioP1;P1;durP2;ratioP2;P2;SDS_P1;SDS_P2;PMS_P1;PMS_P2;Temp;Humidity;BMP_temperature;BMP_pressure;BME280_temperature;BME280_humidity;BME280_pressure;Samples;Min_cycle;Max_cycle;Signal;HPM_P1;HPM_P2
2022/02/01 00:02:09;;;;;;;;;6.75;5.00;;;;;;;;6310803;22;45259;-92
2022/02/01 00:04:43;;;;;;;;;5.75;4.75;;;;;;;;6282740;22;45405;-92
2022/02/01 00:20:10;;;;;;;;;13.33;7.00;;;;;;;;6311359;22;45326;-93
2022/02/01 00:36:16;;;;;;;;;7.25;5.75;;;;;;;;6311689;22;45238;-92
2022/02/01 00:39:06;;;;;;;;;7.75;6.00;;;;;;;;6282535;22;48069;-92
2022/02/01 00:41:31;;;;;;;;;7.75;6.00;;;;;;;;6310366;22;45333;-93
2022/02/01 00:43:56;;;;;;;;;11.25;5.75;;;;;;;;6284002;22;45189;-93
2022/02/01 00:46:22;;;;;;;;;6.75;5.50;;;;;;;;6283676;22;45177;-92
2022/02/01 00:48:47;;;;;;;;;7.75;6.25;;;;;;;;6283609;22;46841;-93
2022/02/01 00:51:13;;;;;;;;;7.50;6.25;;;;;;;;6311837;22;45135;-92
2022/02/01 00:53:40;;;;;;;;;11.50;7.00;;;;;;;;6283610;22;45306;-92
2022/02/01 00:56:05;;;;;;;;;7.75;6.00;;;;;;;;6283324;22;45334;-92
2022/02/01 00:58:30;;;;;;;;;11.00;6.25;;;;;;;;6282248;22;46744;-93
2022/02/01 01:00:56;;;;;;;;;10.67;7.67;;;;;;;;6282266;22;45386;-92
2022/02/01 01:03:21;;;;;;;;;8.75;5.25;;;;;;;;6283322;22;45260;-93
2022/02/01 01:05:46;;;;;;;;;8.50;5.50;;;;;;;;6283750;22;45177;-93
2022/02/01 01:08:12;;;;;;;;;9.75;6.00;;;;;;;;6282250;22;47064;-93
2022/02/01 01:10:37;;;;;;;;;6.00;6.00;;;;;;;;6310825;22;45510;-92
2022/02/01 01:15:57;;;;;;;;;10.25;7.50;;;;;;;;6311175;22;45699;-92
2022/02/01 01:53:45;;;;;;;;;6.25;5.25;;;;;;;;6286014;22;45667;-91
2022/02/01 01:56:11;;;;;;;;;10.00;6.00;;;;;;;;6255518;22;45370;-92
2022/02/01 01:58:36;;;;;;;;;11.00;7.67;;;;;;;;6279881;22;45238;-92
2022/02/01 02:03:29;;;;;;;;;13.00;6.00;;;;;;;;6279533;22;45148;-92
2022/02/01 02:05:55;;;;;;;;;13.50;5.50;;;;;;;;6256703;22;45286;-93
2022/02/01 02:08:20;;;;;;;;;10.75;5.50;;;;;;;;6255022;22;45165;-92
2022/02/01 02:11:10;;;;;;;;;15.00;6.00;;;;;;;;6255146;22;46919;-92
2022/02/01 02:16:19;;;;;;;;;10.75;6.25;;;;;;;;6282260;22;45176;-92
2022/02/01 02:18:45;;;;;;;;;8.50;5.75;;;;;;;;6254459;22;45369;-93
2022/02/01 02:21:10;;;;;;;;;7.25;5.50;;;;;;;;6253456;22;48073;-92
2022/02/01 02:23:35;;;;;;;;;7.50;6.75;;;;;;;;6254103;22;45242;-92
2022/02/01 02:26:04;;;;;;;;;7.00;7.00;;;;;;;;6252680;22;45273;-93
2022/02/01 02:28:30;;;;;;;;;10.00;6.00;;;;;;;;6253732;22;44771;-93
2022/02/01 02:30:55;;;;;;;;;9.00;6.00;;;;;;;;6253503;22;47416;-93
2022/02/01 02:33:20;;;;;;;;;7.25;5.75;;;;;;;;6251730;22;45246;-93
2022/02/01 02:35:52;;;;;;;;;9.25;4.75;;;;;;;;6252426;22;45350;-93
2022/02/01 02:38:26;;;;;;;;;5.00;5.00;;;;;;;;6262296;22;45409;-92
2022/02/01 02:46:01;;;;;;;;;6.00;4.50;;;;;;;;6314079;22;45550;-92
2022/02/01 02:48:26;;;;;;;;;10.25;6.25;;;;;;;;6286053;22;45207;-93
2022/02/01 02:50:52;;;;;;;;;11.75;7.00;;;;;;;;6286714;22;47999;-93
2022/02/01 02:53:17;;;;;;;;;3.67;3.67;;;;;;;;6285544;22;44711;-93
2022/02/01 02:55:42;;;;;;;;;8.00;6.00;;;;;;;;6286074;22;45375;-92
2022/02/01 02:58:07;;;;;;;;;7.00;5.67;;;;;;;;6284317;22;45253;-92
2022/02/01 03:00:33;;;;;;;;;6.00;5.00;;;;;;;;6313034;22;45365;-92
2022/02/01 03:02:58;;;;;;;;;11.25;5.00;;;;;;;;6311900;22;45161;-93
2022/02/01 03:05:23;;;;;;;;;6.25;6.00;;;;;;;;6284981;22;45295;-93
2022/02/01 03:07:48;;;;;;;;;7.00;5.00;;;;;;;;6286002;22;45182;-93
2022/02/01 03:10:14;;;;;;;;;13.33;5.33;;;;;;;;6315127;22;45319;-92
2022/02/01 03:13:17;;;;;;;;;11.25;5.75;;;;;;;;6314833;22;45097;-93
2022/02/01 03:20:39;;;;;;;;;11.00;6.50;;;;;;;;6310564;22;45775;-92
2022/02/01 03:23:05;;;;;;;;;5.00;4.33;;;;;;;;6284039;22;45687;-93
2022/02/01 03:25:30;;;;;;;;;5.33;5.00;;;;;;;;6310684;22;45306;-92
2022/02/01 03:27:55;;;;;;;;;6.00;4.33;;;;;;;;6283530;22;46089;-93
2022/02/01 03:30:22;;;;;;;;;5.67;5.00;;;;;;;;6310305;22;46111;-93
2022/02/01 03:32:47;;;;;;;;;7.75;6.00;;;;;;;;6283786;22;45353;-93
2022/02/01 03:35:12;;;;;;;;;11.50;5.50;;;;;;;;6312109;22;45286;-93
2022/02/01 03:37:38;;;;;;;;;7.00;5.00;;;;;;;;6283456;22;45441;-92
2022/02/01 03:40:03;;;;;;;;;10.00;6.75;;;;;;;;6282723;22;47057;-92
2022/02/01 03:42:28;;;;;;;;;5.50;3.50;;;;;;;;6282387;22;45240;-93
2022/02/01 03:44:53;;;;;;;;;11.33;5.00;;;;;;;;6310347;22;45244;-92
2022/02/01 03:47:19;;;;;;;;;4.00;3.00;;;;;;;;6282517;22;45265;-92
2022/02/01 03:49:44;;;;;;;;;5.67;3.00;;;;;;;;6282791;22;47233;-92
2022/02/01 03:52:10;;;;;;;;;7.00;5.00;;;;;;;;6282900;22;45295;-93
2022/02/01 03:54:36;;;;;;;;;4.00;3.00;;;;;;;;6311920;22;45211;-92
2022/02/01 03:57:03;;;;;;;;;9.25;4.00;;;;;;;;6282792;22;45280;-93
2022/02/01 03:59:28;;;;;;;;;3.75;3.75;;;;;;;;6283237;22;46924;-93
2022/02/01 04:01:55;;;;;;;;;3.00;3.00;;;;;;;;6282527;22;45512;-92
2022/02/01 04:04:22;;;;;;;;;7.00;3.50;;;;;;;;6283964;22;45338;-93
2022/02/01 04:06:48;;;;;;;;;5.75;2.00;;;;;;;;6283767;22;45431;-92
2022/02/01 04:09:13;;;;;;;;;8.25;2.25;;;;;;;;6282319;22;47222;-93
2022/02/01 04:11:38;;;;;;;;;8.75;5.00;;;;;;;;6283011;22;45154;-93
2022/02/01 04:14:04;;;;;;;;;9.33;4.33;;;;;;;;6283796;22;45208;-93
2022/02/01 04:16:29;;;;;;;;;6.75;3.00;;;;;;;;6310344;22;45231;-92
2022/02/01 04:18:54;;;;;;;;;5.50;3.00;;;;;;;;6284134;22;48106;-93
2022/02/01 04:21:20;;;;;;;;;7.00;5.33;;;;;;;;6286653;22;45223;-93
2022/02/01 04:23:45;;;;;;;;;6.00;4.33;;;;;;;;6288414;22;45287;-93
2022/02/01 04:26:10;;;;;;;;;12.67;5.00;;;;;;;;6314276;22;45322;-93
2022/02/01 04:28:35;;;;;;;;;3.67;3.00;;;;;;;;6285964;22;46789;-92
2022/02/01 04:31:00;;;;;;;;;6.33;3.33;;;;;;;;6284295;22;45236;-93
2022/02/01 04:33:26;;;;;;;;;7.75;3.00;;;;;;;;6285647;22;45229;-93
2022/02/01 04:35:51;;;;;;;;;6.00;3.00;;;;;;;;6310954;22;45149;-93
2022/02/01 04:38:16;;;;;;;;;8.33;5.33;;;;;;;;6281728;22;47138;-92
2022/02/01 04:40:41;;;;;;;;;3.33;3.33;;;;;;;;6283566;22;45957;-92
2022/02/01 04:43:07;;;;;;;;;6.33;5.00;;;;;;;;6286072;22;45358;-92
2022/02/01 04:45:32;;;;;;;;;8.25;3.50;;;;;;;;6284695;22;45748;-92
2022/02/01 04:47:58;;;;;;;;;7.00;3.00;;;;;;;;6282550;22;47068;-92
2022/02/01 04:50:24;;;;;;;;;3.50;3.50;;;;;;;;6258021;22;45666;-92
2022/02/01 04:52:52;;;;;;;;;7.50;5.25;;;;;;;;6283950;22;45275;-93
2022/02/01 04:55:19;;;;;;;;;5.25;2.50;;;;;;;;6284216;22;45365;-93
2022/02/01 04:57:53;;;;;;;;;7.50;4.00;;;;;;;;6283686;22;48324;-92
2022/02/01 05:00:19;;;;;;;;;7.00;5.00;;;;;;;;6283754;22;45132;-92
2022/02/01 05:02:44;;;;;;;;;9.75;3.00;;;;;;;;6285461;22;45276;-92
2022/02/01 05:05:10;;;;;;;;;4.33;2.67;;;;;;;;6303384;22;45183;-92
2022/02/01 05:07:35;;;;;;;;;9.00;5.00;;;;;;;;6292403;22;46982;-92
2022/02/01 05:10:00;;;;;;;;;5.00;2.00;;;;;;;;6288190;22;45209;-93
2022/02/01 05:12:28;;;;;;;;;6.50;3.00;;;;;;;;6290619;22;45221;-92
2022/02/01 05:14:53;;;;;;;;;8.25;3.00;;;;;;;;6301086;22;44804;-91
2022/02/01 05:17:22;;;;;;;;;6.00;2.67;;;;;;;;6304705;22;46848;-92
2022/02/01 05:19:54;;;;;;;;;10.50;3.00;;;;;;;;6301892;22;45050;-92
2022/02/01 05:22:20;;;;;;;;;4.50;2.25;;;;;;;;6298339;22;45361;-92
2022/02/01 05:24:48;;;;;;;;;8.00;3.00;;;;;;;;6300829;22;45334;-92
2022/02/01 05:27:14;;;;;;;;;3.25;2.25;;;;;;;;6298774;22;47060;-92
2022/02/01 05:29:40;;;;;;;;;4.50;3.00;;;;;;;;6300845;22;45118;-91
2022/02/01 05:32:20;;;;;;;;;3.50;3.00;;;;;;;;6301633;22;44747;-93
2022/02/01 05:34:46;;;;;;;;;6.50;2.75;;;;;;;;6292608;22;45615;-92
2022/02/01 05:37:11;;;;;;;;;12.33;2.00;;;;;;;;6284693;22;47144;-92
2022/02/01 05:39:37;;;;;;;;;6.33;4.00;;;;;;;;6286018;22;45764;-92
2022/02/01 05:42:03;;;;;;;;;5.75;1.50;;;;;;;;6290082;22;45379;-94
2022/02/01 05:44:28;;;;;;;;;7.00;3.00;;;;;;;;6317065;22;45328;-93
2022/02/01 05:46:53;;;;;;;;;10.33;2.67;;;;;;;;6291328;22;47082;-92
2022/02/01 05:49:18;;;;;;;;;6.67;1.33;;;;;;;;6290029;22;45185;-92
2022/02/01 05:51:44;;;;;;;;;2.25;2.00;;;;;;;;6291286;22;45161;-92
2022/02/01 05:54:09;;;;;;;;;3.75;2.50;;;;;;;;6289996;22;45252;-92
2022/02/01 05:56:34;;;;;;;;;2.25;2.00;;;;;;;;6290389;22;47114;-92
2022/02/01 05:59:00;;;;;;;;;6.75;1.00;;;;;;;;6285079;22;45205;-92
2022/02/01 06:01:25;;;;;;;;;10.33;3.67;;;;;;;;6284423;22;45476;-92
2022/02/01 06:03:50;;;;;;;;;6.00;5.00;;;;;;;;6282198;22;45414;-93
2022/02/01 06:06:15;;;;;;;;;8.00;3.00;;;;;;;;6312100;22;46408;-93
2022/02/01 06:08:41;;;;;;;;;4.50;2.00;;;;;;;;6284262;22;45399;-91
2022/02/01 06:11:06;;;;;;;;;3.00;2.00;;;;;;;;6284837;22;45239;-92
2022/02/01 06:13:36;;;;;;;;;9.00;3.00;;;;;;;;6283839;22;45206;-92
2022/02/01 06:16:01;;;;;;;;;7.75;3.00;;;;;;;;6280807;22;46048;-91
2022/02/01 06:18:27;;;;;;;;;8.00;1.00;;;;;;;;6283054;22;45220;-90
2022/02/01 06:20:52;;;;;;;;;1.00;1.00;;;;;;;;6282908;22;45418;-92
2022/02/01 06:23:18;;;;;;;;;9.75;3.00;;;;;;;;6310936;22;45470;-92
2022/02/01 06:25:48;;;;;;;;;8.75;3.00;;;;;;;;6284533;22;47782;-92
2022/02/01 06:28:15;;;;;;;;;5.50;2.00;;;;;;;;6283783;22;45427;-92
2022/02/01 06:30:40;;;;;;;;;5.25;2.00;;;;;;;;6291612;22;45181;-92
2022/02/01 06:33:06;;;;;;;;;7.00;2.75;;;;;;;;6292432;22;45915;-89
2022/02/01 06:35:31;;;;;;;;;8.00;3.50;;;;;;;;6284126;22;47055;-89
2022/02/01 06:37:56;;;;;;;;;3.00;2.67;;;;;;;;6282637;22;45623;-89
2022/02/01 06:40:21;;;;;;;;;3.00;2.00;;;;;;;;6282391;22;45236;-83
2022/02/01 06:42:47;;;;;;;;;7.00;1.75;;;;;;;;6309586;22;45393;-86
2022/02/01 06:45:12;;;;;;;;;5.25;2.50;;;;;;;;6281703;22;47158;-88
2022/02/01 06:47:37;;;;;;;;;9.25;4.25;;;;;;;;6281780;22;45413;-89
2022/02/01 06:50:04;;;;;;;;;8.00;4.67;;;;;;;;6282444;22;45471;-90
2022/02/01 06:52:30;;;;;;;;;5.00;2.50;;;;;;;;6282072;22;45724;-89
2022/02/01 06:54:56;;;;;;;;;3.75;3.25;;;;;;;;6310480;22;45348;-89
2022/02/01 06:57:21;;;;;;;;;3.00;3.00;;;;;;;;6310360;22;45302;-87
2022/02/01 06:59:46;;;;;;;;;11.67;2.33;;;;;;;;6281870;22;45270;-86
2022/02/01 07:02:11;;;;;;;;;6.00;2.00;;;;;;;;6281106;22;45589;-84
2022/02/01 07:04:36;;;;;;;;;3.67;3.33;;;;;;;;6309869;22;46648;-87
2022/02/01 07:07:02;;;;;;;;;6.33;2.67;;;;;;;;6282941;22;45261;-86
2022/02/01 07:09:31;;;;;;;;;8.00;3.00;;;;;;;;6309390;22;45362;-87
2022/02/01 07:11:57;;;;;;;;;11.75;2.75;;;;;;;;6310306;22;45382;-86
2022/02/01 07:14:22;;;;;;;;;6.25;2.50;;;;;;;;6282215;22;47939;-87
2022/02/01 07:16:47;;;;;;;;;7.33;3.67;;;;;;;;6309340;22;45277;-87
2022/02/01 07:19:13;;;;;;;;;7.67;4.00;;;;;;;;6281523;22;45436;-87
2022/02/01 07:21:38;;;;;;;;;6.25;2.25;;;;;;;;6310315;22;45166;-87
2022/02/01 07:24:06;;;;;;;;;5.00;2.00;;;;;;;;6310417;22;45192;-87
2022/02/01 07:26:32;;;;;;;;;4.75;2.25;;;;;;;;6282574;22;45184;-84
2022/02/01 07:28:57;;;;;;;;;7.75;4.50;;;;;;;;6310144;22;45277;-91
2022/02/01 07:31:22;;;;;;;;;3.25;1.25;;;;;;;;6282221;22;45605;-84
2022/02/01 07:33:48;;;;;;;;;5.00;2.67;;;;;;;;6279981;22;47318;-83
2022/02/01 07:36:16;;;;;;;;;6.25;3.00;;;;;;;;6309793;22;45247;-84
2022/02/01 07:38:41;;;;;;;;;8.75;2.50;;;;;;;;6282212;22;45299;-87
2022/02/01 07:41:07;;;;;;;;;4.67;2.33;;;;;;;;6309712;22;45625;-85
2022/02/01 07:43:32;;;;;;;;;5.67;3.00;;;;;;;;6309760;22;45484;-85
2022/02/01 07:45:59;;;;;;;;;5.25;2.75;;;;;;;;6309278;22;45375;-86
2022/02/01 07:48:25;;;;;;;;;7.50;3.00;;;;;;;;5977184;22;7576992;-86
2022/02/01 07:55:17;;;;;;;;;;;;;;;;;;308652;22;89112795;-86
2022/02/01 08:04:18;;;;;;;;;2.00;2.00;;;;;;;;2;279023654;279023654;-86
2022/02/01 08:20:29;;;;;;;;;8.25;3.00;;;;;;;;6329826;22;28330;-86
2022/02/01 08:23:03;;;;;;;;;7.25;6.25;;;;;;;;6330263;22;28361;-86
2022/02/01 08:33:18;;;;;;;;;;;;;;;;;;3256211;22;261074871;-85
2022/02/01 08:35:44;;;;;;;;;6.50;4.00;;;;;;;;4170593;22;49324378;-86
2022/02/01 08:38:09;;;;;;;;;5.75;3.75;;;;;;;;6329069;22;28312;-85
2022/02/01 08:40:34;;;;;;;;;9.75;5.50;;;;;;;;6329557;22;28522;-85
2022/02/01 08:42:59;;;;;;;;;8.33;3.67;;;;;;;;6329777;22;28393;-86
2022/02/01 08:45:26;;;;;;;;;8.67;4.00;;;;;;;;6301481;22;28433;-86
2022/02/01 08:47:52;;;;;;;;;7.00;3.50;;;;;;;;6301314;22;28421;-86
2022/02/01 08:50:21;;;;;;;;;9.75;4.25;;;;;;;;6301564;22;39518;-85
2022/02/01 08:52:48;;;;;;;;;3.25;3.00;;;;;;;;6329591;22;28358;-86
2022/02/01 08:55:38;;;;;;;;;7.00;4.00;;;;;;;;6300358;22;42213;-86
2022/02/01 08:58:00;;;;;;;;;4.00;3.50;;;;;;;;6312568;22;45262;-86
2022/02/01 09:00:25;;;;;;;;;4.50;3.25;;;;;;;;6310544;22;45326;-86
2022/02/01 09:02:50;;;;;;;;;16.00;6.00;;;;;;;;6281486;22;46428;-86
2022/02/01 09:05:16;;;;;;;;;10.00;5.75;;;;;;;;6309415;22;45326;-87
2022/02/01 09:07:41;;;;;;;;;9.25;6.00;;;;;;;;6309882;22;45286;-87
2022/02/01 09:10:07;;;;;;;;;4.00;3.00;;;;;;;;6309762;22;45526;-85
2022/02/01 09:12:32;;;;;;;;;9.00;3.00;;;;;;;;6281610;22;47183;-86
2022/02/01 09:14:57;;;;;;;;;8.67;3.33;;;;;;;;6284839;22;45883;-86
2022/02/01 09:17:22;;;;;;;;;6.67;4.33;;;;;;;;6312940;22;45283;-86
2022/02/01 09:19:48;;;;;;;;;7.00;4.33;;;;;;;;6312796;22;45582;-86
2022/02/01 09:22:14;;;;;;;;;6.00;4.33;;;;;;;;6312883;22;45391;-86
2022/02/01 09:24:43;;;;;;;;;7.50;4.50;;;;;;;;6313101;22;45545;-86
2022/02/01 09:27:09;;;;;;;;;7.50;4.00;;;;;;;;6313096;22;45254;-86
2022/02/01 09:29:35;;;;;;;;;5.00;4.00;;;;;;;;6312798;22;45389;-86
2022/02/01 09:32:01;;;;;;;;;9.75;5.00;;;;;;;;6312663;22;45354;-86
2022/02/01 09:34:26;;;;;;;;;7.00;4.00;;;;;;;;6283755;22;45868;-86
2022/02/01 09:36:52;;;;;;;;;11.50;5.00;;;;;;;;6313339;22;45332;-86
2022/02/01 09:39:18;;;;;;;;;7.00;6.00;;;;;;;;6284780;22;45535;-86
2022/02/01 09:41:43;;;;;;;;;6.00;3.00;;;;;;;;6312787;22;46329;-86
2022/02/01 09:44:08;;;;;;;;;6.25;3.25;;;;;;;;6312840;22;45287;-86
2022/02/01 09:46:37;;;;;;;;;6.00;6.00;;;;;;;;6284546;22;45370;-86
2022/02/01 09:49:09;;;;;;;;;6.00;3.75;;;;;;;;6312055;22;45383;-86
2022/02/01 09:51:34;;;;;;;;;9.00;5.75;;;;;;;;6312329;22;45248;-86
2022/02/01 09:54:00;;;;;;;;;10.50;6.00;;;;;;;;6312673;22;45201;-86
2022/02/01 09:56:25;;;;;;;;;8.75;6.25;;;;;;;;6313014;22;45225;-85
2022/02/01 09:58:55;;;;;;;;;9.00;4.50;;;;;;;;6312553;22;45376;-86
2022/02/01 10:01:23;;;;;;;;;7.00;4.00;;;;;;;;6284286;22;47086;-86
2022/02/01 10:03:59;;;;;;;;;0.00;0.00;;;;;;;;6284598;22;45623;-86
2022/02/01 10:06:28;;;;;;;;;5.75;4.50;;;;;;;;6312930;22;45373;-85
2022/02/01 10:09:02;;;;;;;;;3.50;3.50;;;;;;;;6312295;22;45310;-86
2022/02/01 10:11:33;;;;;;;;;10.75;6.00;;;;;;;;6284253;22;47300;-86
2022/02/01 10:13:59;;;;;;;;;8.25;6.25;;;;;;;;6284403;22;45396;-86
2022/02/01 10:16:31;;;;;;;;;7.00;5.00;;;;;;;;6312782;22;45284;-86
2022/02/01 10:19:09;;;;;;;;;7.25;7.25;;;;;;;;6284460;22;45764;-86
2022/02/01 10:21:34;;;;;;;;;8.75;6.00;;;;;;;;6284344;22;47055;-86
2022/02/01 10:24:06;;;;;;;;;4.00;4.00;;;;;;;;6312915;22;45098;-85
2022/02/01 10:26:35;;;;;;;;;6.50;6.50;;;;;;;;6283211;22;45346;-86
2022/02/01 10:29:06;;;;;;;;;11.75;7.75;;;;;;;;6282490;22;45522;-87
2022/02/01 10:38:21;;;;;;;;;;;;;;;;;;649449;22;261075186;-86
2022/02/01 10:46:49;;;;;;;;;2.00;2.00;;;;;;;;2;261075549;261075549;-86
2022/02/01 10:55:51;;;;;;;;;2.50;2.50;;;;;;;;2;261076801;261076801;-86
2022/02/01 11:04:09;;;;;;;;;3.00;3.00;;;;;;;;2;261076577;261076577;-89
2022/02/01 11:13:10;;;;;;;;;14.00;6.00;;;;;;;;2;261075753;261075753;-88
2022/02/01 11:21:26;;;;;;;;;4.50;4.50;;;;;;;;2;261080466;261080466;-87
2022/02/01 11:30:38;;;;;;;;;13.00;1.00;;;;;;;;2;261074464;261074464;-87
2022/02/01 11:38:55;;;;;;;;;2.00;2.00;;;;;;;;2;261075838;261075838;-87
2022/02/01 11:47:55;;;;;;;;;14.00;2.50;;;;;;;;2;261072129;261072129;-86
2022/02/01 11:56:12;;;;;;;;;3.50;3.50;;;;;;;;2;261075584;261075584;-87
2022/02/01 12:05:16;;;;;;;;;8.00;6.00;;;;;;;;2;261075207;261075207;-87
2022/02/01 12:13:31;;;;;;;;;7.00;7.00;;;;;;;;2;261077855;261077855;-87
2022/02/01 12:18:05;;;;;;;;;3.50;3.50;;;;;;;;2;261076889;261076889;-87
2022/02/01 12:26:39;;;;;;;;;18.00;6.00;;;;;;;;2;261071816;261071816;-87
2022/02/01 12:30:13;;;;;;;;;3.50;3.50;;;;;;;;2;203890297;203890297;-86
2022/02/01 12:32:52;;;;;;;;;7.00;5.67;;;;;;;;5591155;22;15788540;-87
2022/02/01 12:35:28;;;;;;;;;6.00;4.00;;;;;;;;6278090;22;45326;-87
2022/02/01 12:38:01;;;;;;;;;4.00;2.50;;;;;;;;6280500;22;45542;-87
2022/02/01 12:40:32;;;;;;;;;5.00;4.00;;;;;;;;6310168;22;45124;-87
2022/02/01 12:43:07;;;;;;;;;10.50;3.75;;;;;;;;6309876;22;45304;-87
2022/02/01 12:48:17;;;;;;;;;5.00;3.00;;;;;;;;6309054;22;45164;-86
2022/02/01 12:50:51;;;;;;;;;5.00;3.67;;;;;;;;5224370;22;24898852;-87
2022/02/01 12:53:17;;;;;;;;;2.75;2.25;;;;;;;;6282109;22;46994;-87
2022/02/01 12:55:42;;;;;;;;;2.00;2.00;;;;;;;;6309888;22;45144;-87
2022/02/01 12:58:07;;;;;;;;;5.00;4.00;;;;;;;;6281722;22;45264;-87
2022/02/01 13:00:32;;;;;;;;;4.00;2.00;;;;;;;;6309564;22;45184;-87
2022/02/01 13:03:00;;;;;;;;;5.50;3.00;;;;;;;;6281811;22;47824;-87
2022/02/01 13:05:25;;;;;;;;;4.00;2.25;;;;;;;;6310296;22;45569;-86
2022/02/01 13:08:11;;;;;;;;;3.25;2.50;;;;;;;;6282505;22;45269;-87
2022/02/01 13:21:14;;;;;;;;;4.00;4.00;;;;;;;;6309915;22;45350;-87
2022/02/01 13:23:47;;;;;;;;;7.25;2.75;;;;;;;;6281209;22;46936;-87
2022/02/01 13:26:13;;;;;;;;;4.00;3.00;;;;;;;;6281466;22;45700;-87
2022/02/01 13:28:42;;;;;;;;;5.00;4.00;;;;;;;;6309479;22;45169;-87
2022/02/01 13:31:10;;;;;;;;;4.75;4.00;;;;;;;;6281103;22;45373;-87
2022/02/01 13:33:49;;;;;;;;;9.75;5.25;;;;;;;;6309122;22;45996;-87
2022/02/01 13:36:14;;;;;;;;;3.50;3.50;;;;;;;;6309385;22;45243;-87
2022/02/01 13:38:56;;;;;;;;;7.75;5.50;;;;;;;;6280949;22;45110;-87
2022/02/01 13:41:23;;;;;;;;;6.00;3.50;;;;;;;;6281604;22;45164;-86
2022/02/01 13:43:49;;;;;;;;;4.50;3.00;;;;;;;;6281213;22;46958;-86
2022/02/01 13:46:33;;;;;;;;;4.50;3.50;;;;;;;;6281344;22;45221;-87
2022/02/01 13:49:05;;;;;;;;;7.00;2.75;;;;;;;;6281034;22;45177;-87
2022/02/01 13:51:31;;;;;;;;;7.00;4.00;;;;;;;;6309617;22;45342;-87
2022/02/01 13:54:00;;;;;;;;;7.00;7.00;;;;;;;;6281304;22;46471;-87
2022/02/01 13:56:27;;;;;;;;;7.25;3.75;;;;;;;;6309414;22;45179;-87
2022/02/01 13:58:56;;;;;;;;;5.25;4.00;;;;;;;;6309152;22;45425;-87
2022/02/01 14:01:22;;;;;;;;;3.00;1.25;;;;;;;;6310528;22;45226;-87
2022/02/01 14:03:56;;;;;;;;;5.25;3.00;;;;;;;;6282685;22;47981;-87
2022/02/01 14:06:29;;;;;;;;;7.50;3.00;;;;;;;;6282702;22;45307;-87
2022/02/01 14:34:56;;;;;;;;;5.00;3.50;;;;;;;;6316915;22;45357;-85
2022/02/01 14:37:40;;;;;;;;;3.25;3.25;;;;;;;;6302861;22;44787;-87
2022/02/01 14:43:19;;;;;;;;;6.50;2.50;;;;;;;;6290796;22;45183;-87
2022/02/01 14:45:35;;;;;;;;;4.00;2.25;;;;;;;;6294339;22;45397;-87
2022/02/01 14:48:01;;;;;;;;;5.67;4.00;;;;;;;;6270527;22;44811;-87
2022/02/01 14:50:26;;;;;;;;;4.00;3.00;;;;;;;;6269186;22;45557;-87
2022/02/01 14:52:51;;;;;;;;;5.00;3.00;;;;;;;;6263745;22;45270;-87
2022/02/01 14:55:22;;;;;;;;;3.67;2.67;;;;;;;;6251769;22;48331;-86
2022/02/01 15:13:42;;;;;;;;;3.25;2.25;;;;;;;;6279608;22;45221;-85
2022/02/01 15:16:08;;;;;;;;;5.00;3.00;;;;;;;;6250981;22;47193;-85
2022/02/01 15:18:34;;;;;;;;;5.00;3.00;;;;;;;;6251411;22;45186;-84
2022/02/01 15:20:59;;;;;;;;;3.00;2.50;;;;;;;;6279671;22;45429;-84
2022/02/01 15:23:24;;;;;;;;;4.00;3.67;;;;;;;;6280490;22;45348;-84
2022/02/01 15:25:51;;;;;;;;;3.75;1.00;;;;;;;;6278826;22;45248;-85
2022/02/01 15:28:17;;;;;;;;;2.00;1.00;;;;;;;;6279342;22;45250;-85
2022/02/01 15:30:43;;;;;;;;;5.00;2.00;;;;;;;;6251231;22;45307;-84
2022/02/01 15:33:08;;;;;;;;;2.00;2.00;;;;;;;;6251287;22;45611;-84
2022/02/01 15:35:35;;;;;;;;;4.00;2.75;;;;;;;;6279124;22;45513;-84
2022/02/01 15:38:01;;;;;;;;;4.00;1.25;;;;;;;;6284279;22;45230;-84
2022/02/01 15:57:01;;;;;;;;;2.00;2.00;;;;;;;;6308054;22;45693;-83
2022/02/01 15:59:33;;;;;;;;;2.00;1.25;;;;;;;;6279813;22;45606;-83
2022/02/01 16:02:05;;;;;;;;;1.75;1.75;;;;;;;;6307975;22;45314;-83
2022/02/01 16:04:31;;;;;;;;;3.00;1.00;;;;;;;;6307597;22;45735;-85
2022/02/01 16:07:03;;;;;;;;;2.00;2.00;;;;;;;;6279981;22;47487;-85
2022/02/01 16:12:35;;;;;;;;;3.25;1.75;;;;;;;;6181856;23;45407;-84
2022/02/01 16:15:00;;;;;;;;;3.00;3.00;;;;;;;;6265081;22;45565;-82
2022/02/01 16:17:26;;;;;;;;;2.00;1.25;;;;;;;;6309322;22;45500;-83
2022/02/01 16:19:51;;;;;;;;;2.50;1.50;;;;;;;;6309544;22;45401;-84
2022/02/01 16:22:17;;;;;;;;;5.00;2.00;;;;;;;;6281461;22;45744;-83
2022/02/01 16:24:42;;;;;;;;;1.75;1.75;;;;;;;;6309550;22;45449;-84
2022/02/01 16:27:07;;;;;;;;;2.00;2.00;;;;;;;;6309660;22;46191;-83
2022/02/01 16:29:33;;;;;;;;;4.50;2.00;;;;;;;;6281316;22;45186;-84
2022/02/01 16:31:59;;;;;;;;;3.50;2.00;;;;;;;;6281835;22;45351;-86
2022/02/01 16:34:24;;;;;;;;;1.33;1.33;;;;;;;;6310009;22;45354;-84
2022/02/01 16:36:50;;;;;;;;;8.25;2.50;;;;;;;;6280796;22;48075;-86
2022/02/01 16:39:16;;;;;;;;;4.75;3.00;;;;;;;;6281249;22;45277;-85
2022/02/01 16:41:42;;;;;;;;;3.00;2.75;;;;;;;;6280183;22;45604;-84
2022/02/01 16:44:08;;;;;;;;;4.00;2.75;;;;;;;;6309360;22;45518;-85
2022/02/01 16:46:35;;;;;;;;;4.00;4.00;;;;;;;;6309205;22;46132;-85
2022/02/01 16:49:01;;;;;;;;;6.50;3.50;;;;;;;;6281286;22;45424;-85
2022/02/01 16:51:27;;;;;;;;;4.75;3.50;;;;;;;;6281488;22;45308;-84
2022/02/01 16:53:56;;;;;;;;;7.50;3.50;;;;;;;;6309001;22;45326;-85
2022/02/01 16:56:27;;;;;;;;;4.25;3.75;;;;;;;;6309367;22;46007;-84
2022/02/01 16:58:57;;;;;;;;;6.25;5.25;;;;;;;;6309431;22;45168;-85
2022/02/01 17:01:22;;;;;;;;;4.00;4.00;;;;;;;;6281172;22;45274;-85
2022/02/01 17:03:48;;;;;;;;;7.50;4.00;;;;;;;;6280858;22;45599;-85
2022/02/01 17:06:13;;;;;;;;;4.50;4.50;;;;;;;;6281318;22;47699;-84
2022/02/01 17:08:38;;;;;;;;;5.50;4.00;;;;;;;;6280899;22;45665;-85
2022/02/01 17:11:39;;;;;;;;;5.00;5.00;;;;;;;;6308828;22;45394;-85
2022/02/01 17:14:27;;;;;;;;;5.75;4.25;;;;;;;;6280855;22;45427;-85
2022/02/01 17:19:33;;;;;;;;;4.75;3.75;;;;;;;;6308883;22;45326;-84
2022/02/01 17:21:58;;;;;;;;;12.00;3.25;;;;;;;;6281585;22;45540;-82
2022/02/01 17:24:24;;;;;;;;;6.75;5.50;;;;;;;;6308889;22;45251;-85
2022/02/01 17:26:49;;;;;;;;;6.00;6.00;;;;;;;;6309547;22;45330;-85
2022/02/01 17:29:15;;;;;;;;;11.25;6.75;;;;;;;;6280260;22;46269;-85
2022/02/01 17:31:40;;;;;;;;;9.25;4.50;;;;;;;;6309207;22;45224;-85
2022/02/01 17:34:06;;;;;;;;;9.00;4.25;;;;;;;;6281453;22;45399;-85
2022/02/01 17:36:31;;;;;;;;;5.25;5.00;;;;;;;;6282234;22;46697;-85
2022/02/01 17:38:59;;;;;;;;;11.25;7.00;;;;;;;;6281425;22;45383;-85
2022/02/01 17:41:28;;;;;;;;;3.75;3.75;;;;;;;;6310670;22;45177;-85
2022/02/01 17:43:54;;;;;;;;;8.25;5.00;;;;;;;;6310289;22;45270;-84
2022/02/01 17:46:19;;;;;;;;;8.25;6.00;;;;;;;;6310077;22;45326;-85
2022/02/01 17:48:46;;;;;;;;;11.00;6.00;;;;;;;;6281688;22;45216;-86
2022/02/01 17:51:26;;;;;;;;;7.25;5.25;;;;;;;;6282446;22;45240;-86
2022/02/01 17:56:17;;;;;;;;;9.25;8.00;;;;;;;;6309636;22;45267;-86
2022/02/01 17:58:43;;;;;;;;;10.00;5.00;;;;;;;;6281933;22;45405;-84
2022/02/01 18:01:08;;;;;;;;;12.50;8.00;;;;;;;;6281991;22;45233;-88
2022/02/01 18:03:33;;;;;;;;;10.33;7.67;;;;;;;;6282044;22;45331;-85
2022/02/01 18:05:59;;;;;;;;;17.00;7.25;;;;;;;;6309329;22;46558;-87
2022/02/01 18:08:26;;;;;;;;;16.75;9.25;;;;;;;;6309059;22;45241;-84
2022/02/01 18:10:51;;;;;;;;;18.75;8.50;;;;;;;;6309536;22;45314;-83
2022/02/01 18:13:29;;;;;;;;;19.75;9.25;;;;;;;;6309418;22;45533;-84
2022/02/01 18:15:56;;;;;;;;;8.50;6.75;;;;;;;;6309622;22;45462;-85
2022/02/01 18:18:24;;;;;;;;;9.75;7.00;;;;;;;;6309570;22;45741;-85
2022/02/01 18:20:53;;;;;;;;;11.50;8.00;;;;;;;;6281898;22;45359;-84
2022/02/01 18:23:18;;;;;;;;;9.00;9.00;;;;;;;;6309455;22;45440;-82
2022/02/01 18:25:44;;;;;;;;;11.00;9.67;;;;;;;;6310038;22;45364;-84
2022/02/01 18:28:10;;;;;;;;;17.25;9.75;;;;;;;;6309952;22;45398;-84
2022/02/01 18:30:41;;;;;;;;;13.00;9.25;;;;;;;;6309956;22;45405;-86
2022/02/01 18:33:07;;;;;;;;;17.75;11.00;;;;;;;;6281799;22;45633;-85
2022/02/01 18:35:35;;;;;;;;;13.50;12.25;;;;;;;;6310084;22;45452;-84
2022/02/01 18:38:03;;;;;;;;;16.50;12.00;;;;;;;;6309252;22;45315;-81
2022/02/01 18:40:28;;;;;;;;;16.50;11.25;;;;;;;;6309915;22;45225;-84
2022/02/01 18:43:04;;;;;;;;;15.67;10.00;;;;;;;;6310281;22;45251;-83
2022/02/01 18:45:31;;;;;;;;;14.00;11.75;;;;;;;;6307534;22;46008;-85
2022/02/01 18:48:03;;;;;;;;;18.50;13.75;;;;;;;;6308828;22;45566;-85
2022/02/01 18:53:06;;;;;;;;;20.50;13.75;;;;;;;;6308809;22;45240;-85
2022/02/01 18:58:17;;;;;;;;;16.25;14.00;;;;;;;;6307438;22;45263;-85
2022/02/01 19:06:35;;;;;;;;;21.00;13.50;;;;;;;;6309557;22;45413;-84
2022/02/01 19:11:47;;;;;;;;;16.75;12.25;;;;;;;;6282524;22;45398;-85
2022/02/01 19:14:17;;;;;;;;;20.00;13.00;;;;;;;;6308455;22;45309;-85
2022/02/01 19:16:44;;;;;;;;;18.25;16.00;;;;;;;;6308559;22;46293;-85
2022/02/01 19:19:10;;;;;;;;;14.75;12.25;;;;;;;;6309054;22;45644;-84
2022/02/01 19:21:36;;;;;;;;;19.00;15.00;;;;;;;;6309906;22;45346;-85
2022/02/01 19:24:04;;;;;;;;;19.50;16.25;;;;;;;;6308104;22;45256;-86
2022/02/01 19:26:32;;;;;;;;;20.25;15.25;;;;;;;;6307186;22;45298;-86
2022/02/01 19:28:57;;;;;;;;;23.75;15.25;;;;;;;;6305369;22;45771;-86
2022/02/01 19:31:31;;;;;;;;;19.25;12.25;;;;;;;;6280850;22;45404;-85